Time;durP1;ratioP1;P1;durP2;ratioP2;P2;SDS_P1;SDS_P2;PMS_P1;PMS_P2;Temp;Humidity;BMP_temperature;BMP_pressure;BME280_temperature;BME280_humidity;BME280_pressure;Samples;Min_cycle;Max_cycle;Signal;HPM_P1;HPM_P2
2023/06/04 00:02:20;;;;;;;3.28;3.08;;;;;;;17.45;89.26;95174.78;4952772;28;20688;-64
2023/06/04 00:04:48;;;;;;;6.68;3.65;;;;;;;17.53;89.16;95173.44;4950259;28;20352;-61
2023/06/04 00:07:15;;;;;;;3.47;3.28;;;;;;;17.46;89.04;95177.25;4950071;28;20207;-60
2023/06/04 00:09:42;;;;;;;3.22;3.03;;;;;;;17.32;89.45;95169.56;4944012;28;21267;-62
2023/06/04 00:12:09;;;;;;;3.42;3.13;;;;;;;17.05;90.99;95173.72;4943156;28;20211;-62
2023/06/04 00:14:36;;;;;;;3.75;3.35;;;;;;;16.94;91.33;95158.91;4943836;28;22218;-62
2023/06/04 00:17:03;;;;;;;3.22;3.03;;;;;;;17.03;91.12;95162.69;4949164;28;20261;-63
2023/06/04 00:19:29;;;;;;;3.17;3.08;;;;;;;17.07;90.75;95169.31;4950019;28;20207;-68
2023/06/04 00:21:57;;;;;;;3.22;3.03;;;;;;;17.07;91.31;95167.56;4951322;28;22355;-58
2023/06/04 00:24:24;;;;;;;4.53;4.22;;;;;;;17.11;90.84;95168.19;4948902;28;20207;-59
2023/06/04 00:26:51;;;;;;;3.08;2.90;;;;;;;16.94;91.66;95172.56;4951168;28;20217;-61
2023/06/04 00:29:18;;;;;;;3.53;3.30;;;;;;;17.05;91.85;95161.69;4942833;28;20210;-60
2023/06/04 00:31:44;;;;;;;8.23;3.13;;;;;;;17.08;91.74;95165.81;4954892;28;20202;-62
2023/06/04 00:34:11;;;;;;;2.95;2.83;;;;;;;16.95;91.67;95161.38;4963055;28;20730;-62
2023/06/04 00:36:38;;;;;;;5.15;3.35;;;;;;;16.98;91.58;95160.38;4941270;28;21355;-63
2023/06/04 00:39:06;;;;;;;3.30;3.10;;;;;;;17.02;90.88;95163.59;4998309;28;20306;-61
2023/06/04 00:41:33;;;;;;;2.95;2.72;;;;;;;17.03;91.25;95167.81;4999281;28;20261;-62
2023/06/04 00:44:01;;;;;;;4.28;2.70;;;;;;;17.19;90.77;95166.03;4998848;28;20756;-62
2023/06/04 00:46:28;;;;;;;4.05;3.17;;;;;;;17.06;90.76;95162.53;5001154;28;20235;-61
2023/06/04 00:48:55;;;;;;;4.50;3.40;;;;;;;17.00;91.74;95161.94;4999658;28;20945;-60
2023/06/04 00:51:23;;;;;;;3.20;3.00;;;;;;;17.12;90.81;95159.56;4999627;28;20223;-60
2023/06/04 00:53:50;;;;;;;3.22;3.03;;;;;;;16.93;91.14;95157.25;4999607;28;22215;-61
2023/06/04 00:56:18;;;;;;;3.28;3.08;;;;;;;16.84;91.12;95153.44;5001422;28;20214;-67
2023/06/04 00:58:47;;;;;;;3.20;3.00;;;;;;;16.78;91.97;95158.94;5000382;28;20276;-62
2023/06/04 01:01:23;;;;;;;3.33;3.13;;;;;;;16.84;91.91;95153.44;4998650;28;20297;-60
2023/06/04 01:03:55;;;;;;;3.70;3.50;;;;;;;16.89;91.46;95158.31;5000263;28;20211;-61
2023/06/04 01:06:29;;;;;;;4.82;2.83;;;;;;;16.88;91.34;95161.81;5001640;28;20204;-59
2023/06/04 01:09:00;;;;;;;4.25;3.15;;;;;;;16.91;91.59;95159.91;5000316;28;20305;-62
2023/06/04 01:11:35;;;;;;;3.17;3.08;;;;;;;16.81;92.02;95158.78;5001147;28;20230;-62
2023/06/04 01:14:02;;;;;;;4.85;3.25;;;;;;;16.74;92.67;95161.78;4998812;28;20347;-62
2023/06/04 01:16:34;;;;;;;3.60;3.40;;;;;;;16.70;93.70;95153.41;5001527;28;20703;-61
2023/06/04 01:19:03;;;;;;;4.30;3.60;;;;;;;16.86;93.03;95156.75;5000060;28;20217;-62
2023/06/04 01:21:35;;;;;;;5.60;3.05;;;;;;;16.89;91.99;95150.63;4999172;28;20207;-59
2023/06/04 01:24:06;;;;;;;4.20;2.92;;;;;;;16.61;92.66;95151.31;4999223;28;20209;-63
2023/06/04 01:26:35;;;;;;;3.22;2.38;;;;;;;16.61;93.26;95156.44;4998089;28;20202;-60
2023/06/04 01:29:02;;;;;;;3.25;2.95;;;;;;;16.69;93.13;95153.50;4999129;28;22950;-61
2023/06/04 01:31:32;;;;;;;3.25;3.05;;;;;;;16.63;93.06;95163.19;4997710;28;20281;-58
2023/06/04 01:33:59;;;;;;;3.20;3.00;;;;;;;16.61;93.59;95164.16;4999583;28;20226;-61
2023/06/04 01:36:27;;;;;;;3.05;2.25;;;;;;;16.42;93.83;95156.66;4999374;28;20237;-60
2023/06/04 01:38:53;;;;;;;2.83;2.70;;;;;;;16.50;93.77;95174.19;5000009;28;20195;-60
2023/06/04 01:41:20;;;;;;;2.90;2.70;;;;;;;16.57;93.63;95163.50;4999535;28;20320;-59
2023/06/04 01:43:48;;;;;;;3.03;2.83;;;;;;;16.39;94.02;95179.06;4999471;28;22047;-63
2023/06/04 01:46:15;;;;;;;3.78;2.45;;;;;;;16.41;93.65;95164.41;4999314;28;20824;-60
2023/06/04 01:48:41;;;;;;;3.28;3.08;;;;;;;16.44;93.83;95165.09;4999184;28;20626;-60
2023/06/04 01:51:08;;;;;;;2.90;2.70;;;;;;;16.35;94.44;95170.69;5000383;28;20342;-60
2023/06/04 01:53:35;;;;;;;3.25;3.03;;;;;;;16.41;94.60;95175.50;4999314;28;20982;-60
2023/06/04 01:56:02;;;;;;;3.10;2.90;;;;;;;16.46;94.29;95177.81;4997766;28;20206;-61
2023/06/04 01:58:29;;;;;;;2.65;2.55;;;;;;;16.52;94.05;95182.63;5000653;28;20301;-61
2023/06/04 02:01:00;;;;;;;2.80;2.60;;;;;;;16.51;93.97;95181.81;5000244;28;20207;-59
2023/06/04 02:03:27;;;;;;;2.65;2.45;;;;;;;16.52;93.83;95182.63;4998633;28;20202;-59
2023/06/04 02:05:54;;;;;;;3.17;2.97;;;;;;;16.59;93.76;95178.78;4999746;28;20591;-60
2023/06/04 02:08:21;;;;;;;3.38;3.05;;;;;;;16.40;94.41;95181.53;5000895;28;20202;-62
2023/06/04 02:10:47;;;;;;;3.03;2.83;;;;;;;16.54;94.30;95183.38;5000253;28;20201;-61
2023/06/04 02:13:15;;;;;;;2.88;2.70;;;;;;;16.50;94.41;95180.16;5000546;28;20337;-60
2023/06/04 02:15:42;;;;;;;3.00;2.80;;;;;;;16.51;94.39;95180.97;4999290;28;20297;-60
2023/06/04 02:18:18;;;;;;;2.30;2.20;;;;;;;16.50;94.34;95189.56;4999837;28;20272;-61
2023/06/04 02:20:45;;;;;;;2.70;2.60;;;;;;;16.49;94.25;95198.19;4999205;28;20272;-61
2023/06/04 02:23:12;;;;;;;3.28;2.75;;;;;;;16.42;94.36;95196.84;4999294;28;20708;-62
2023/06/04 02:25:39;;;;;;;2.95;2.75;;;;;;;16.40;94.49;95201.25;4999043;28;20294;-60
2023/06/04 02:28:05;;;;;;;2.75;2.47;;;;;;;16.53;94.23;95195.38;4999933;28;20276;-61
2023/06/04 02:30:32;;;;;;;2.63;2.33;;;;;;;16.54;94.14;95209.03;4999769;28;20298;-60
2023/06/04 02:33:00;;;;;;;3.05;2.85;;;;;;;16.54;94.03;95207.28;5003283;28;20294;-60
2023/06/04 02:35:28;;;;;;;3.10;2.90;;;;;;;16.53;94.23;95202.25;5003956;28;20299;-62
2023/06/04 02:37:56;;;;;;;3.42;2.85;;;;;;;16.62;93.84;95209.41;5000914;28;20339;-60
2023/06/04 02:40:23;;;;;;;3.42;2.53;;;;;;;16.66;93.20;95210.94;5001958;28;20211;-59
2023/06/04 02:42:49;;;;;;;3.08;2.33;;;;;;;16.64;93.77;95223.03;5002148;28;20203;-60
2023/06/04 02:45:16;;;;;;;2.80;2.60;;;;;;;16.64;93.69;95216.16;5001163;28;21614;-61
2023/06/04 02:47:43;;;;;;;2.67;2.47;;;;;;;16.70;93.34;95219.31;5001227;28;20775;-61
2023/06/04 02:50:10;;;;;;;7.03;2.53;;;;;;;16.76;93.08;95219.81;5001431;28;20206;-63
2023/06/04 02:52:39;;;;;;;2.83;2.63;;;;;;;16.90;92.65;95224.97;5001279;28;20326;-58
2023/06/04 02:55:07;;;;;;;2.83;2.70;;;;;;;16.78;92.41;95228.25;5001896;28;20302;-66
2023/06/04 02:57:34;;;;;;;3.05;2.90;;;;;;;16.82;92.59;95226.34;5001299;28;20213;-63
2023/06/04 03:00:02;;;;;;;2.58;2.38;;;;;;;16.70;92.63;95238.09;5002976;28;20203;-60
2023/06/04 03:02:29;;;;;;;2.80;2.67;;;;;;;16.56;93.22;95220.88;5002705;28;20212;-60
2023/06/04 03:04:55;;;;;;;2.50;2.40;;;;;;;16.74;93.46;95241.31;5003508;28;20285;-60
2023/06/04 03:07:22;;;;;;;2.33;2.22;;;;;;;16.62;93.51;95235.06;5004212;28;20202;-60
2023/06/04 03:09:50;;;;;;;3.30;2.92;;;;;;;16.64;93.89;95239.25;5002788;28;20365;-60
2023/06/04 03:12:17;;;;;;;3.30;3.00;;;;;;;16.69;93.77;95233.88;5002809;28;20293;-60
2023/06/04 03:14:44;;;;;;;4.28;2.95;;;;;;;16.82;93.17;95232.31;5002429;28;20734;-61
2023/06/04 03:17:11;;;;;;;2.83;2.70;;;;;;;16.66;93.48;95234.03;5003968;28;20238;-62
2023/06/04 03:19:39;;;;;;;2.75;2.55;;;;;;;16.77;93.37;95233.47;5003028;28;20306;-62
2023/06/04 03:22:06;;;;;;;2.63;2.40;;;;;;;16.85;93.08;95237.25;5003361;28;20222;-65
2023/06/04 03:24:36;;;;;;;2.70;2.50;;;;;;;16.86;93.55;95238.06;5002211;28;20620;-61
2023/06/04 03:27:05;;;;;;;3.00;2.80;;;;;;;17.05;92.44;95237.91;5002035;28;20222;-63
2023/06/04 03:29:33;;;;;;;2.80;2.70;;;;;;;17.15;91.77;95236.44;5002275;28;20641;-60
2023/06/04 03:31:59;;;;;;;3.00;2.63;;;;;;;17.10;91.32;95243.56;5002672;28;20207;-61
2023/06/04 03:34:27;;;;;;;3.20;2.90;;;;;;;16.98;92.12;95245.94;5001675;28;20219;-67
2023/06/04 03:36:53;;;;;;;3.00;2.80;;;;;;;16.98;92.27;95242.53;5002165;28;20325;-58
2023/06/04 03:39:20;;;;;;;2.70;2.60;;;;;;;16.90;92.20;95250.66;5001834;28;20313;-60
2023/06/04 03:41:47;;;;;;;5.53;2.50;;;;;;;16.92;92.15;95253.97;5001090;28;23111;-62
2023/06/04 03:44:16;;;;;;;4.65;3.20;;;;;;;16.91;92.38;95254.88;5001668;28;21148;-61
2023/06/04 03:46:42;;;;;;;3.15;2.97;;;;;;;16.69;93.41;95236.44;5002262;28;20203;-59
2023/06/04 03:49:10;;;;;;;3.38;3.03;;;;;;;16.96;92.70;95255.47;5001680;28;20339;-61
2023/06/04 03:51:37;;;;;;;2.65;2.55;;;;;;;16.79;93.28;95263.28;5001973;28;20766;-60
2023/06/04 03:54:04;;;;;;;4.03;2.85;;;;;;;16.61;94.51;95254.78;5001454;28;20726;-60
2023/06/04 03:56:30;;;;;;;3.83;3.28;;;;;;;16.77;94.14;95262.53;5001829;28;20289;-62
2023/06/04 03:58:57;;;;;;;4.00;2.95;;;;;;;16.87;93.84;95258.53;5003395;28;20219;-61
2023/06/04 04:01:26;;;;;;;6.70;2.83;;;;;;;16.89;93.76;95251.56;5000906;28;20692;-62
2023/06/04 04:03:54;;;;;;;6.85;2.88;;;;;;;17.07;93.16;95259.19;5002983;28;20293;-61
2023/06/04 04:06:20;;;;;;;3.55;3.33;;;;;;;16.99;93.40;95257.03;5001549;28;20657;-64
2023/06/04 04:08:48;;;;;;;3.42;3.22;;;;;;;17.04;93.94;95261.91;5001734;28;20207;-59
2023/06/04 04:11:15;;;;;;;3.85;3.65;;;;;;;16.95;94.54;95264.06;5000343;28;20231;-60
2023/06/04 04:13:42;;;;;;;4.93;3.67;;;;;;;16.94;95.02;95259.84;5002084;28;20206;-64
2023/06/04 04:16:10;;;;;;;5.20;4.80;;;;;;;16.89;95.48;95268.72;5001356;28;20199;-60
2023/06/04 04:18:38;;;;;;;3.30;3.10;;;;;;;16.83;96.07;95269.03;5002384;28;20211;-60
2023/06/04 04:21:05;;;;;;;7.22;4.53;;;;;;;16.84;96.39;95266.38;5000699;28;20210;-61
2023/06/04 04:23:32;;;;;;;4.40;4.00;;;;;;;17.02;96.03;95263.75;5000055;28;20207;-61
2023/06/04 04:26:00;;;;;;;4.28;3.88;;;;;;;17.03;96.09;95261.09;5002331;28;20308;-58
2023/06/04 04:28:28;;;;;;;4.10;3.80;;;;;;;17.09;96.06;95265.84;5002409;28;20264;-59
2023/06/04 04:30:56;;;;;;;4.13;3.90;;;;;;;17.16;95.72;95267.19;5001271;28;20211;-60
2023/06/04 04:33:24;;;;;;;4.35;4.05;;;;;;;17.13;96.00;95271.66;5001090;28;20532;-62
2023/06/04 04:35:53;;;;;;;8.52;4.65;;;;;;;17.04;96.42;95272.19;5002288;28;20225;-60
2023/06/04 04:38:23;;;;;;;4.20;3.70;;;;;;;17.29;95.50;95272.47;5002702;28;20246;-61
2023/06/04 04:40:51;;;;;;;4.63;4.32;;;;;;;17.11;96.00;95279.44;5001781;28;20199;-62
2023/06/04 04:43:18;;;;;;;5.40;5.05;;;;;;;17.05;95.80;95278.97;5000675;28;20210;-60
2023/06/04 04:45:45;;;;;;;4.40;4.18;;;;;;;17.06;96.51;95270.38;5001737;28;20211;-61
2023/06/04 04:48:12;;;;;;;5.72;5.22;;;;;;;17.08;96.58;95273.66;5002313;28;20268;-61
2023/06/04 04:50:38;;;;;;;4.97;4.60;;;;;;;17.25;96.14;95274.38;5001868;28;20227;-61
2023/06/04 04:53:06;;;;;;;4.45;4.05;;;;;;;17.22;95.91;95278.84;4999824;28;20306;-62
2023/06/04 04:55:33;;;;;;;4.95;4.55;;;;;;;17.26;95.87;95281.16;5001057;28;20469;-60
2023/06/04 04:57:59;;;;;;;6.32;4.78;;;;;;;17.40;95.19;95277.81;5001443;28;20673;-60
2023/06/04 05:00:27;;;;;;;4.53;4.22;;;;;;;17.53;94.28;95281.34;5000921;28;20323;-59
2023/06/04 05:02:54;;;;;;;8.40;4.50;;;;;;;17.66;94.43;95278.91;5001516;28;20326;-62
2023/06/04 05:05:21;;;;;;;13.40;4.40;;;;;;;17.73;92.83;95281.97;5001597;28;20289;-61
2023/06/04 05:07:48;;;;;;;5.00;3.92;;;;;;;17.75;92.82;95282.72;5001385;28;20213;-62
2023/06/04 05:10:17;;;;;;;5.07;4.38;;;;;;;17.71;92.38;95281.22;5001464;28;20404;-68
2023/06/04 05:12:52;;;;;;;6.20;4.68;;;;;;;17.82;92.15;95278.84;4999649;28;20558;-64
2023/06/04 05:15:19;;;;;;;5.47;4.97;;;;;;;17.84;91.71;95280.41;4999984;28;20229;-60
2023/06/04 05:17:46;;;;;;;5.93;4.60;;;;;;;17.92;90.43;95287.69;5000542;28;20242;-62
2023/06/04 05:20:14;;;;;;;7.70;5.35;;;;;;;17.96;90.11;95284.03;5000844;28;20214;-64
2023/06/04 05:22:41;;;;;;;6.20;5.50;;;;;;;18.11;88.94;95290.00;4999313;28;20284;-59
2023/06/04 05:25:09;;;;;;;5.38;4.55;;;;;;;18.17;87.83;95293.03;5000127;28;20285;-61
2023/06/04 05:27:37;;;;;;;5.88;5.20;;;;;;;18.07;88.73;95291.91;5000530;28;20688;-60
2023/06/04 05:30:04;;;;;;;4.97;4.57;;;;;;;17.99;87.89;95299.28;5000729;28;20677;-61
2023/06/04 05:32:32;;;;;;;4.75;4.35;;;;;;;17.94;85.70;95283.28;5000872;28;20261;-62
2023/06/04 05:34:59;;;;;;;4.75;4.28;;;;;;;17.78;85.09;95282.53;5000679;28;20258;-63
2023/06/04 05:37:28;;;;;;;5.50;5.10;;;;;;;17.88;84.82;95299.06;5000770;28;20745;-60
2023/06/04 05:39:56;;;;;;;4.63;4.32;;;;;;;17.93;83.80;95297.06;5000012;28;20207;-63
2023/06/04 05:42:23;;;;;;;7.80;4.97;;;;;;;17.99;82.85;95299.28;4999686;28;20896;-64
2023/06/04 05:44:51;;;;;;;6.88;4.57;;;;;;;18.10;82.74;95307.16;4999368;28;20302;-61
2023/06/04 05:47:18;;;;;;;4.72;4.40;;;;;;;18.14;81.90;95310.38;5001256;28;20207;-59
2023/06/04 05:49:45;;;;;;;9.15;4.53;;;;;;;18.16;81.92;95306.81;4999905;28;20677;-62
2023/06/04 05:52:12;;;;;;;6.00;4.57;;;;;;;18.20;81.60;95313.44;4999297;28;20233;-63
2023/06/04 05:54:38;;;;;;;4.47;4.18;;;;;;;18.21;81.22;95311.69;5000398;28;20448;-61
2023/06/04 05:57:05;;;;;;;7.40;4.47;;;;;;;18.16;80.91;95314.53;4999751;28;20815;-60
2023/06/04 05:59:32;;;;;;;4.95;4.55;;;;;;;18.32;80.75;95317.84;5000316;28;20280;-61
2023/06/04 06:02:00;;;;;;;4.20;3.90;;;;;;;18.27;80.08;95327.59;5001053;28;20293;-62
2023/06/04 06:04:27;;;;;;;4.65;4.35;;;;;;;18.21;80.38;95324.56;4999746;28;21715;-60
2023/06/04 06:06:54;;;;;;;5.15;4.75;;;;;;;18.38;80.75;95326.13;5001687;28;20207;-61
2023/06/04 06:09:21;;;;;;;4.63;4.32;;;;;;;18.39;79.91;95326.03;5003685;28;20337;-60
2023/06/04 06:11:48;;;;;;;4.95;4.53;;;;;;;18.43;79.52;95324.09;5003868;28;20203;-61
2023/06/04 06:14:15;;;;;;;7.07;4.85;;;;;;;18.44;79.19;95336.88;5002529;28;20298;-61
2023/06/04 06:16:41;;;;;;;4.97;4.38;;;;;;;18.44;79.76;95336.03;5005367;28;20231;-61
2023/06/04 06:19:10;;;;;;;4.78;4.38;;;;;;;18.48;79.72;95317.75;5004313;28;20211;-60
2023/06/04 06:21:37;;;;;;;5.32;4.45;;;;;;;18.78;79.03;95325.41;5005063;28;20265;-63
2023/06/04 06:24:05;;;;;;;5.40;4.25;;;;;;;18.75;78.24;95325.59;5004570;28;20198;-60
2023/06/04 06:26:31;;;;;;;5.38;4.80;;;;;;;18.68;78.37;95329.44;5003997;28;20344;-62
2023/06/04 06:28:58;;;;;;;8.63;4.65;;;;;;;18.68;78.24;95329.44;5003534;28;20602;-61
2023/06/04 06:31:25;;;;;;;4.78;4.35;;;;;;;18.80;78.10;95331.28;5002566;28;20217;-68
2023/06/04 06:33:52;;;;;;;4.80;4.50;;;;;;;18.76;78.37;95326.41;5004230;28;20213;-61
2023/06/04 06:36:20;;;;;;;5.60;5.10;;;;;;;18.62;78.84;95329.81;5004027;28;20237;-61
2023/06/04 06:38:47;;;;;;;5.13;4.68;;;;;;;18.86;77.95;95332.63;5003563;28;20225;-59
2023/06/04 06:41:14;;;;;;;5.35;4.88;;;;;;;19.28;77.54;95332.53;5003881;28;20294;-61
2023/06/04 06:43:41;;;;;;;5.72;4.90;;;;;;;19.60;76.43;95340.81;5003022;28;20894;-62
2023/06/04 06:46:07;;;;;;;4.78;4.47;;;;;;;19.94;74.73;95334.28;5002134;28;20202;-60
2023/06/04 06:48:34;;;;;;;6.40;4.28;;;;;;;20.21;72.80;95336.78;5004306;28;20296;-62
2023/06/04 06:51:01;;;;;;;5.85;5.28;;;;;;;20.45;71.98;95336.91;5003947;28;20285;-62
2023/06/04 06:53:29;;;;;;;10.90;4.53;;;;;;;20.68;71.31;95335.34;5002117;28;20211;-63
2023/06/04 06:55:56;;;;;;;5.03;4.63;;;;;;;20.96;70.66;95334.25;5002915;28;20310;-64
2023/06/04 06:58:24;;;;;;;6.22;4.53;;;;;;;20.85;70.14;95342.75;5002819;28;20651;-66
2023/06/04 07:00:50;;;;;;;6.47;4.50;;;;;;;20.79;69.44;95340.56;5002848;28;20294;-63
2023/06/04 07:03:17;;;;;;;4.45;4.10;;;;;;;20.46;70.44;95342.91;5004411;28;20713;-62
2023/06/04 07:05:44;;;;;;;4.20;3.90;;;;;;;20.12;71.68;95342.56;5003465;28;20394;-62
2023/06/04 07:08:10;;;;;;;4.57;4.25;;;;;;;19.96;72.74;95347.09;5004380;28;20285;-60
2023/06/04 07:10:38;;;;;;;5.13;4.80;;;;;;;20.01;72.89;95352.78;5004830;28;20259;-61
2023/06/04 07:13:05;;;;;;;5.53;5.13;;;;;;;19.99;73.05;95352.03;5003402;28;20235;-61
2023/06/04 07:15:32;;;;;;;5.28;4.80;;;;;;;19.85;74.11;95354.69;5002858;28;20327;-62
2023/06/04 07:17:58;;;;;;;5.20;4.70;;;;;;;19.73;74.39;95350.34;5002240;28;20294;-60
2023/06/04 07:20:25;;;;;;;5.20;4.70;;;;;;;19.53;74.92;95359.38;5003697;28;20350;-62
2023/06/04 07:22:52;;;;;;;5.38;4.88;;;;;;;19.77;74.82;95354.38;5002873;28;20280;-60
2023/06/04 07:25:18;;;;;;;5.38;4.70;;;;;;;19.97;73.58;95365.03;5002698;28;21450;-62
2023/06/04 07:27:50;;;;;;;5.45;5.05;;;;;;;19.85;74.56;95362.41;5001947;28;20203;-62
2023/06/04 07:30:18;;;;;;;5.90;4.82;;;;;;;19.97;74.86;95361.63;5001705;28;20214;-60
2023/06/04 07:32:48;;;;;;;5.60;5.10;;;;;;;20.18;73.73;95367.94;5003986;28;20198;-62
2023/06/04 07:35:15;;;;;;;6.30;5.82;;;;;;;20.27;72.90;95354.44;5002198;28;20215;-62
2023/06/04 07:37:44;;;;;;;5.90;5.40;;;;;;;20.30;73.17;95364.53;5002646;28;20353;-60
2023/06/04 07:40:11;;;;;;;6.20;5.55;;;;;;;20.52;73.40;95371.72;5003138;28;20238;-61
2023/06/04 07:42:38;;;;;;;10.52;5.25;;;;;;;20.80;71.86;95368.06;5003638;28;20203;-60
2023/06/04 07:45:07;;;;;;;5.70;5.25;;;;;;;20.87;71.83;95371.88;5001907;28;20211;-60
2023/06/04 07:47:34;;;;;;;5.28;4.88;;;;;;;21.13;71.11;95374.41;5001523;28;20293;-60
2023/06/04 07:50:01;;;;;;;5.20;4.80;;;;;;;21.30;70.19;95385.22;5000714;28;20230;-60
2023/06/04 07:52:27;;;;;;;8.45;6.03;;;;;;;21.32;69.95;95379.97;5002454;28;20761;-61
2023/06/04 07:54:55;;;;;;;7.63;7.03;;;;;;;21.23;70.74;95378.88;5002424;28;20294;-61
2023/06/04 07:57:21;;;;;;;6.40;5.90;;;;;;;21.52;69.91;95381.16;5002207;28;20215;-61
2023/06/04 07:59:48;;;;;;;6.00;5.57;;;;;;;21.65;69.94;95385.31;5002701;28;20584;-61
2023/06/04 08:02:16;;;;;;;5.88;5.47;;;;;;;21.61;68.07;95378.72;5002972;28;20207;-63
2023/06/04 08:04:43;;;;;;;6.10;5.53;;;;;;;21.58;68.74;95384.09;5003216;28;20207;-63
2023/06/04 08:07:10;;;;;;;6.35;5.40;;;;;;;21.90;68.80;95384.38;5002072;28;20317;-61
2023/06/04 08:09:36;;;;;;;10.23;5.80;;;;;;;22.56;66.02;95382.06;5001790;28;22338;-63
2023/06/04 08:12:03;;;;;;;6.03;5.53;;;;;;;22.63;65.26;95383.25;5000515;28;20299;-61
2023/06/04 08:14:31;;;;;;;6.95;5.10;;;;;;;22.80;65.11;95384.59;5001389;28;20316;-63
2023/06/04 08:16:58;;;;;;;6.55;5.85;;;;;;;22.94;64.00;95382.59;5002630;28;22158;-63
2023/06/04 08:19:26;;;;;;;6.13;5.53;;;;;;;23.15;62.57;95379.28;5000610;28;20294;-61
2023/06/04 08:21:53;;;;;;;9.25;5.68;;;;;;;23.59;61.90;95380.97;5003038;28;20290;-61
2023/06/04 08:24:19;;;;;;;6.65;5.93;;;;;;;24.90;58.40;95376.16;5001243;28;20294;-63
2023/06/04 08:26:47;;;;;;;7.35;6.10;;;;;;;25.56;56.55;95380.88;5001874;28;20214;-62
2023/06/04 08:29:13;;;;;;;6.30;5.70;;;;;;;25.74;55.32;95380.09;4999739;28;20563;-60
2023/06/04 08:31:40;;;;;;;13.05;7.10;;;;;;;25.60;55.29;95392.66;5001291;28;20298;-61
2023/06/04 08:34:06;;;;;;;6.95;6.20;;;;;;;25.14;56.96;95388.88;5002032;28;21216;-63
2023/06/04 08:36:35;;;;;;;7.28;6.57;;;;;;;25.62;55.62;95395.97;5001723;28;20242;-61
2023/06/04 08:39:01;;;;;;;6.78;5.90;;;;;;;24.44;57.66;95386.19;4998843;28;20349;-63
2023/06/04 08:41:30;;;;;;;6.55;5.95;;;;;;;23.66;60.65;95395.94;5000002;28;20643;-62
2023/06/04 08:44:01;;;;;;;7.03;6.43;;;;;;;23.63;61.32;95391.00;4998711;28;20599;-60
2023/06/04 08:46:29;;;;;;;7.88;7.05;;;;;;;23.38;61.40;95391.28;4998778;28;20330;-61
2023/06/04 08:49:00;;;;;;;8.23;6.85;;;;;;;22.86;63.58;95395.31;4999742;28;20211;-62
2023/06/04 08:51:27;;;;;;;7.30;6.70;;;;;;;23.32;62.38;95396.94;4999771;28;20894;-61
2023/06/04 08:53:57;;;;;;;8.85;7.57;;;;;;;23.30;61.53;95404.00;5000676;28;20255;-62
2023/06/04 08:56:23;;;;;;;7.90;7.20;;;;;;;23.14;62.09;95399.19;5001080;28;20336;-62
2023/06/04 08:58:51;;;;;;;9.32;8.43;;;;;;;23.31;62.43;95405.66;5001495;28;20298;-61
2023/06/04 09:01:18;;;;;;;6.75;6.18;;;;;;;23.63;61.00;95406.56;4999471;28;21199;-61
2023/06/04 09:03:46;;;;;;;8.15;7.22;;;;;;;23.33;61.08;95409.78;5001247;28;20235;-62
2023/06/04 09:06:13;;;;;;;8.13;7.07;;;;;;;23.39;61.54;95419.69;5001379;28;20191;-63
2023/06/04 09:08:42;;;;;;;13.50;7.13;;;;;;;23.10;62.41;95417.69;5000770;28;21658;-62
2023/06/04 09:11:14;;;;;;;10.30;7.55;;;;;;;22.82;63.14;95404.25;4972707;28;20203;-64
2023/06/04 09:13:44;;;;;;;6.82;6.22;;;;;;;22.63;62.84;95412.59;5001460;28;20649;-62
2023/06/04 09:16:11;;;;;;;8.55;7.75;;;;;;;22.17;64.36;95412.59;5000639;28;20227;-62
2023/06/04 09:18:37;;;;;;;7.95;7.22;;;;;;;21.88;65.71;95416.47;5001830;28;20368;-62
2023/06/04 09:21:05;;;;;;;8.68;7.88;;;;;;;22.15;65.42;95414.47;5000890;28;20207;-61
2023/06/04 09:23:32;;;;;;;10.02;6.90;;;;;;;22.29;64.69;95416.03;5000695;28;20207;-61
2023/06/04 09:26:08;;;;;;;7.30;6.60;;;;;;;22.30;64.33;95408.16;4999995;28;20213;-63
2023/06/04 09:28:36;;;;;;;7.10;6.40;;;;;;;22.38;64.30;95408.41;5000363;28;20240;-62
2023/06/04 09:31:03;;;;;;;9.45;7.13;;;;;;;22.55;63.31;95406.31;5001343;28;20207;-63
2023/06/04 09:33:30;;;;;;;7.70;7.07;;;;;;;22.79;62.07;95404.50;4999531;28;20297;-64
2023/06/04 09:35:57;;;;;;;8.88;7.97;;;;;;;23.00;61.66;95402.06;5000595;28;20652;-62
2023/06/04 09:38:24;;;;;;;11.10;8.90;;;;;;;23.33;60.07;95414.97;5000855;28;20336;-62
2023/06/04 09:40:51;;;;;;;9.52;8.75;;;;;;;23.42;59.22;95413.44;4998710;28;20203;-62
2023/06/04 09:43:22;;;;;;;11.43;8.40;;;;;;;23.04;60.06;95401.66;4969923;28;20207;-62
2023/06/04 09:45:51;;;;;;;10.07;9.05;;;;;;;22.58;61.16;95406.09;5000050;28;20759;-68
2023/06/04 09:48:22;;;;;;;10.00;8.50;;;;;;;22.58;61.77;95406.09;5001379;28;20203;-62
2023/06/04 09:50:49;;;;;;;10.15;7.60;;;;;;;22.50;61.72;95409.28;4998935;28;20317;-65
2023/06/04 09:53:16;;;;;;;9.85;8.38;;;;;;;22.61;62.55;95405.88;4948961;28;20349;-67
2023/06/04 09:55:43;;;;;;;11.55;7.70;;;;;;;23.03;60.89;95400.03;4992258;28;20295;-62
2023/06/04 09:58:13;;;;;;;7.93;7.28;;;;;;;23.51;59.14;95402.31;4992138;28;20248;-68
2023/06/04 10:00:41;;;;;;;10.40;7.38;;;;;;;23.29;59.01;95420.50;4982822;28;20211;-61
2023/06/04 10:03:15;;;;;;;10.05;8.23;;;;;;;22.67;61.50;95402.81;4969516;28;20213;-65
2023/06/04 10:05:42;;;;;;;9.10;7.60;;;;;;;22.94;61.80;95392.16;4998924;28;20892;-64
2023/06/04 10:08:13;;;;;;;8.43;7.22;;;;;;;23.44;59.67;95400.34;5000690;28;20214;-63
2023/06/04 10:10:40;;;;;;;10.23;8.60;;;;;;;23.60;59.16;95393.84;4986169;28;20261;-63
2023/06/04 10:13:10;;;;;;;7.82;7.13;;;;;;;23.44;59.99;95401.16;4941482;28;20215;-63
2023/06/04 10:15:38;;;;;;;10.05;9.15;;;;;;;23.16;60.02;95401.69;4946699;28;20734;-70
2023/06/04 10:18:05;;;;;;;10.25;7.95;;;;;;;22.79;61.24;95401.91;4945423;28;20218;-64
2023/06/04 10:20:34;;;;;;;7.10;6.50;;;;;;;22.95;60.20;95407.59;4950051;28;20208;-64
2023/06/04 10:23:04;;;;;;;8.35;7.25;;;;;;;22.97;60.17;95399.69;4948279;28;20199;-64
2023/06/04 10:25:31;;;;;;;7.25;6.57;;;;;;;23.29;60.08;95402.34;4945189;28;20677;-66
2023/06/04 10:27:58;;;;;;;7.93;7.10;;;;;;;22.96;60.44;95396.28;4944801;28;20214;-64
2023/06/04 10:30:25;;;;;;;7.25;6.43;;;;;;;22.99;60.65;95397.81;4967382;28;20211;-65
2023/06/04 10:32:51;;;;;;;7.05;6.50;;;;;;;22.87;60.58;95394.38;4983998;28;20203;-64
2023/06/04 10:35:18;;;;;;;7.22;6.53;;;;;;;23.08;61.06;95395.31;5006793;28;20317;-63
2023/06/04 10:37:47;;;;;;;6.72;6.18;;;;;;;23.32;59.91;95397.75;5001803;28;20361;-64
2023/06/04 10:40:14;;;;;;;10.93;6.72;;;;;;;22.74;59.71;95401.44;5003649;28;20207;-65
2023/06/04 10:42:42;;;;;;;6.68;6.03;;;;;;;22.50;60.85;95391.16;5006713;28;20625;-61
2023/06/04 10:45:11;;;;;;;6.97;6.38;;;;;;;22.55;61.03;95390.78;5006710;28;20203;-63
2023/06/04 10:47:40;;;;;;;9.60;6.78;;;;;;;22.81;62.23;95394.84;5008568;28;20799;-63
2023/06/04 10:50:11;;;;;;;7.57;6.93;;;;;;;23.07;60.65;95390.25;5007084;28;20213;-63
2023/06/04 10:52:39;;;;;;;7.60;6.88;;;;;;;23.03;61.31;95384.47;5008362;28;20294;-64
2023/06/04 10:55:09;;;;;;;7.63;6.60;;;;;;;22.64;60.27;95397.88;5009571;28;20763;-62
2023/06/04 10:57:36;;;;;;;6.53;6.03;;;;;;;22.30;61.87;95392.63;5008728;28;20758;-56
2023/06/04 11:00:06;;;;;;;7.35;6.85;;;;;;;22.13;62.27;95390.47;5001970;28;20782;-58
2023/06/04 11:02:32;;;;;;;6.38;5.97;;;;;;;22.20;63.12;95390.84;5005873;28;20214;-55
2023/06/04 11:05:03;;;;;;;6.75;6.25;;;;;;;22.17;61.83;95391.06;5002869;28;20264;-62
2023/06/04 11:07:30;;;;;;;6.53;6.03;;;;;;;22.39;61.93;95381.59;5001211;28;20211;-61
2023/06/04 11:09:57;;;;;;;9.35;6.82;;;;;;;22.51;62.06;95386.81;5008378;28;20313;-55
2023/06/04 11:12:25;;;;;;;7.68;7.07;;;;;;;22.37;60.74;95378.28;5010954;28;20329;-58
2023/06/04 11:14:55;;;;;;;6.82;6.32;;;;;;;22.47;61.72;95383.63;5009787;28;20715;-60
2023/06/04 11:17:22;;;;;;;7.10;6.60;;;;;;;22.62;61.03;95390.22;5009376;28;20227;-62
2023/06/04 11:19:49;;;;;;;6.68;6.28;;;;;;;22.58;61.05;95387.97;5011167;28;20560;-55
2023/06/04 11:22:16;;;;;;;6.88;6.28;;;;;;;22.50;61.74;95385.16;5010476;28;20501;-57
2023/06/04 11:24:43;;;;;;;6.78;6.25;;;;;;;22.54;61.75;95378.78;5009266;28;20213;-62
2023/06/04 11:27:09;;;;;;;7.05;6.65;;;;;;;22.46;61.75;95388.91;5010387;28;22342;-59
2023/06/04 11:29:38;;;;;;;7.38;6.78;;;;;;;22.40;62.43;95375.47;5010652;28;20214;-58
2023/06/04 11:32:05;;;;;;;6.68;6.07;;;;;;;22.29;61.29;95383.19;5007995;28;20200;-59
2023/06/04 11:34:32;;;;;;;7.68;7.05;;;;;;;22.12;61.51;95390.56;5009758;28;20811;-55